createdAt,value
2019-04-30T00:00:15.810Z,11.15
2019-04-30T00:01:18.582Z,11.14
2019-04-30T00:02:15.879Z,11.15
2019-04-30T00:03:19.437Z,11.16
2019-04-30T00:04:15.827Z,11.15
2019-04-30T00:05:18.717Z,11.14
2019-04-30T00:06:16.093Z,11.14
2019-04-30T00:07:19.004Z,11.15
2019-04-30T00:08:16.207Z,11.15
2019-04-30T00:09:19.078Z,11.14
2019-04-30T00:10:17.420Z,11.14
2019-04-30T00:11:19.514Z,11.16
2019-04-30T00:12:17.585Z,11.15
2019-04-30T00:13:20.928Z,11.15
2019-04-30T00:14:18.303Z,11.15
2019-04-30T00:15:19.666Z,11.15
2019-04-30T00:16:18.852Z,11.16
2019-04-30T00:17:19.750Z,11.15
2019-04-30T00:18:19.475Z,11.17
2019-04-30T00:19:19.981Z,11.16
2019-04-30T00:20:19.442Z,11.17
2019-04-30T00:21:19.604Z,11.16
2019-04-30T00:22:30.955Z,11.17
2019-04-30T00:23:22.706Z,11.19
2019-04-30T00:24:19.989Z,11.16
2019-04-30T00:25:24.962Z,11.17
2019-04-30T00:26:20.886Z,11.17
2019-04-30T00:27:25.658Z,11.16
2019-04-30T00:28:21.398Z,11.17
2019-04-30T00:29:26.988Z,11.17
2019-04-30T00:30:22.033Z,11.15
2019-04-30T00:31:23.576Z,11.17
2019-04-30T00:32:22.623Z,11.17
2019-04-30T00:33:25.122Z,11.15
2019-04-30T00:34:24.890Z,11.15
2019-04-30T00:35:25.273Z,11.15
2019-04-30T00:36:29.384Z,11.16
2019-04-30T00:37:25.429Z,11.15
2019-04-30T00:38:25.279Z,11.14
2019-04-30T00:39:27.059Z,11.14
2019-04-30T00:40:26.702Z,11.15
2019-04-30T00:41:25.634Z,11.16
2019-04-30T00:42:28.838Z,11.16
2019-04-30T00:43:25.325Z,11.16
2019-04-30T00:44:28.393Z,11.15
2019-04-30T00:45:25.233Z,11.16
2019-04-30T00:46:29.199Z,11.15
2019-04-30T00:47:25.754Z,11.17
2019-04-30T00:48:29.610Z,11.16
2019-04-30T00:49:26.704Z,11.16
2019-04-30T00:50:29.119Z,11.15
2019-04-30T00:51:26.953Z,11.15
2019-04-30T00:52:29.474Z,11.14
2019-04-30T00:53:26.971Z,11.14
2019-04-30T00:54:29.516Z,11.15
2019-04-30T00:55:26.979Z,11.15
2019-04-30T00:56:28.356Z,11.15
2019-04-30T00:57:27.387Z,11.14
2019-04-30T00:58:30.189Z,11.15
2019-04-30T00:59:28.250Z,11.16
2019-04-30T01:01:28.810Z,11.13
2019-04-30T01:02:32.269Z,11.11
2019-04-30T01:03:28.915Z,11.10
2019-04-30T01:04:29.199Z,11.12
2019-04-30T01:05:29.917Z,11.12
2019-04-30T01:06:29.913Z,11.12
2019-04-30T01:07:29.689Z,11.10
2019-04-30T01:08:30.188Z,11.11
2019-04-30T01:09:30.652Z,11.10
2019-04-30T01:10:30.895Z,11.09
2019-04-30T01:11:31.406Z,11.11
2019-04-30T01:12:36.487Z,11.10
2019-04-30T01:13:31.285Z,11.10
2019-04-30T01:14:32.129Z,11.09
2019-04-30T01:15:31.813Z,11.09
2019-04-30T01:16:33.118Z,11.09
2019-04-30T01:17:32.172Z,11.08
2019-04-30T01:18:32.421Z,11.09
2019-04-30T01:19:33.041Z,11.11
2019-04-30T01:20:33.077Z,11.09
2019-04-30T01:21:33.295Z,11.09
2019-04-30T01:22:33.715Z,11.09
2019-04-30T01:23:33.993Z,11.09
2019-04-30T01:24:34.426Z,11.10
2019-04-30T01:25:34.995Z,11.11
2019-04-30T01:26:34.756Z,11.10
2019-04-30T01:27:39.405Z,11.11
2019-04-30T01:28:35.283Z,11.11
2019-04-30T01:29:40.944Z,11.10
2019-04-30T01:30:35.677Z,11.08
2019-04-30T01:31:37.405Z,11.08
2019-04-30T01:32:36.215Z,11.07
2019-04-30T01:33:36.473Z,11.06
2019-04-30T01:34:36.992Z,11.05
2019-04-30T01:35:38.243Z,11.04
2019-04-30T01:36:38.902Z,11.03
2019-04-30T01:37:38.708Z,11.04
2019-04-30T01:38:40.065Z,11.06
2019-04-30T01:39:39.137Z,11.06
2019-04-30T01:40:38.533Z,11.06
2019-04-30T01:41:40.192Z,11.07
2019-04-30T01:42:41.169Z,11.06
2019-04-30T01:43:39.053Z,11.06
2019-04-30T01:44:43.232Z,11.05
2019-04-30T01:45:39.708Z,11.06
2019-04-30T01:46:43.297Z,11.07
2019-04-30T01:47:40.237Z,11.07
2019-04-30T01:48:43.713Z,11.06
2019-04-30T01:49:42.834Z,11.06
2019-04-30T01:50:42.127Z,11.06
2019-04-30T01:51:41.549Z,11.06
2019-04-30T01:52:41.791Z,11.05
2019-04-30T01:53:43.603Z,11.03
2019-04-30T01:54:42.542Z,11.03
2019-04-30T01:55:42.788Z,11.03
2019-04-30T01:56:42.992Z,11.04
2019-04-30T01:57:42.773Z,11.03
2019-04-30T01:58:43.169Z,11.04
2019-04-30T01:59:43.206Z,11.04
2019-04-30T02:00:43.631Z,11.03
2019-04-30T02:01:43.929Z,11.04
2019-04-30T02:02:43.989Z,11.03
2019-04-30T02:03:44.558Z,11.01
2019-04-30T02:04:44.372Z,11.01
2019-04-30T02:05:44.968Z,10.99
2019-04-30T02:06:44.879Z,11.00
2019-04-30T02:07:46.072Z,11.00
2019-04-30T02:08:45.394Z,10.99
2019-04-30T02:09:45.644Z,11.01
2019-04-30T02:10:45.918Z,11.01
2019-04-30T02:11:46.194Z,11.01
2019-04-30T02:12:46.426Z,11.02
2019-04-30T02:13:46.945Z,11.01
2019-04-30T02:14:46.933Z,11.02
2019-04-30T02:15:49.095Z,11.03
2019-04-30T02:16:49.312Z,11.00
2019-04-30T02:17:50.214Z,11.00
2019-04-30T02:18:49.435Z,10.99
2019-04-30T02:20:49.759Z,10.98
2019-04-30T02:21:48.773Z,11.01
2019-04-30T02:22:48.818Z,11.00
2019-04-30T02:23:49.426Z,11.02
2019-04-30T02:24:49.353Z,11.00
2019-04-30T02:25:49.622Z,11.01
2019-04-30T02:26:49.854Z,11.01
2019-04-30T02:27:50.271Z,11.01
2019-04-30T02:28:50.706Z,11.02
2019-04-30T02:29:50.952Z,11.02
2019-04-30T02:30:51.387Z,11.02
2019-04-30T02:31:51.745Z,11.00
2019-04-30T02:32:52.595Z,10.99
2019-04-30T02:33:52.535Z,11.00
2019-04-30T02:34:52.517Z,11.00
2019-04-30T02:35:52.866Z,11.02
2019-04-30T02:36:53.033Z,11.02
2019-04-30T02:37:52.975Z,11.02
2019-04-30T02:38:53.447Z,11.01
2019-04-30T02:39:53.536Z,11.02
2019-04-30T02:40:53.792Z,11.02
2019-04-30T02:41:54.058Z,11.01
2019-04-30T02:42:57.776Z,10.99
2019-04-30T02:43:54.747Z,11.00
2019-04-30T02:44:55.022Z,10.99
2019-04-30T02:45:55.438Z,10.98
2019-04-30T02:46:55.784Z,10.99
2019-04-30T02:47:56.032Z,10.99
2019-04-30T02:48:59.490Z,11.01
2019-04-30T02:50:11.598Z,10.99
2019-04-30T02:50:57.323Z,10.99
2019-04-30T02:51:59.404Z,11.01
2019-04-30T02:53:00.241Z,10.98
2019-04-30T02:54:00.555Z,10.98
2019-04-30T02:54:59.394Z,10.98
2019-04-30T02:55:59.520Z,10.97
2019-04-30T02:56:59.595Z,10.98
2019-04-30T02:57:59.558Z,10.96
2019-04-30T02:59:00.447Z,10.96
2019-04-30T03:00:00.083Z,10.95
2019-04-30T03:01:00.297Z,10.95
2019-04-30T03:02:00.403Z,10.94
2019-04-30T03:03:00.227Z,10.94
2019-04-30T03:04:00.607Z,10.92
2019-04-30T03:05:00.992Z,10.91
2019-04-30T03:06:01.479Z,10.91
2019-04-30T03:07:01.576Z,10.89
2019-04-30T03:08:01.642Z,10.88
2019-04-30T03:09:02.074Z,10.89
2019-04-30T03:10:02.032Z,10.87
2019-04-30T03:11:02.049Z,10.88
2019-04-30T03:12:02.635Z,10.88
2019-04-30T03:13:02.767Z,10.88
2019-04-30T03:14:02.834Z,10.87
2019-04-30T03:15:02.908Z,10.86
2019-04-30T03:16:03.054Z,10.86
2019-04-30T03:17:03.364Z,10.84
2019-04-30T03:18:03.658Z,10.84
2019-04-30T03:19:04.172Z,10.81
2019-04-30T03:20:04.182Z,10.81
2019-04-30T03:21:04.580Z,10.81
2019-04-30T03:22:04.987Z,10.79
2019-04-30T03:23:04.985Z,10.77
2019-04-30T03:24:05.347Z,10.76
2019-04-30T03:25:05.747Z,10.76
2019-04-30T03:26:06.259Z,10.74
2019-04-30T03:27:06.189Z,10.74
2019-04-30T03:28:06.563Z,10.76
2019-04-30T03:29:07.007Z,10.75
2019-04-30T03:30:11.676Z,10.76
2019-04-30T03:31:11.930Z,10.76
2019-04-30T03:32:12.455Z,10.76
2019-04-30T03:33:12.250Z,10.77
2019-04-30T03:34:16.571Z,10.76
2019-04-30T03:35:12.758Z,10.76
2019-04-30T03:36:12.593Z,10.76
2019-04-30T03:37:10.134Z,10.73
2019-04-30T03:38:10.127Z,10.73
2019-04-30T03:39:11.227Z,10.73
2019-04-30T03:40:13.143Z,10.73
2019-04-30T03:41:11.006Z,10.74
2019-04-30T03:42:11.260Z,10.74
2019-04-30T03:43:11.666Z,10.74
2019-04-30T03:44:21.484Z,10.74
2019-04-30T03:45:12.513Z,10.73
2019-04-30T03:46:12.766Z,10.73
2019-04-30T03:47:13.081Z,10.73
2019-04-30T03:48:13.340Z,10.73
2019-04-30T03:49:13.711Z,10.73
2019-04-30T03:50:13.840Z,10.72
2019-04-30T03:51:14.093Z,10.71
2019-04-30T03:52:14.348Z,10.70
2019-04-30T03:53:14.756Z,10.70
2019-04-30T03:54:15.238Z,10.69
2019-04-30T03:55:15.679Z,10.69
2019-04-30T03:56:15.925Z,10.69
2019-04-30T03:57:16.394Z,10.68
2019-04-30T03:58:20.802Z,10.68
2019-04-30T03:59:16.757Z,10.69
2019-04-30T04:00:17.349Z,10.68
2019-04-30T04:01:19.558Z,10.68
2019-04-30T04:02:20.583Z,10.67
2019-04-30T04:03:20.111Z,10.69
2019-04-30T04:04:20.102Z,10.69
2019-04-30T04:05:20.195Z,10.67
2019-04-30T04:06:21.220Z,10.67
2019-04-30T04:07:20.306Z,10.66
2019-04-30T04:08:19.664Z,10.66
2019-04-30T04:09:22.218Z,10.66
2019-04-30T04:10:19.885Z,10.67
2019-04-30T04:11:20.359Z,10.66
2019-04-30T04:12:20.813Z,10.66
2019-04-30T04:13:20.934Z,10.67
2019-04-30T04:14:21.278Z,10.67
2019-04-30T04:15:21.598Z,10.66
2019-04-30T04:16:21.768Z,10.67
2019-04-30T04:17:22.278Z,10.67
2019-04-30T04:18:22.231Z,10.68
2019-04-30T04:19:22.259Z,10.67
2019-04-30T04:20:22.839Z,10.69
2019-04-30T04:21:23.246Z,10.72
2019-04-30T04:22:23.590Z,10.73
2019-04-30T04:23:24.026Z,10.72
2019-04-30T04:24:24.282Z,10.71
2019-04-30T04:25:25.100Z,10.71
2019-04-30T04:26:24.872Z,10.73
2019-04-30T04:27:25.186Z,10.71
2019-04-30T04:28:25.450Z,10.73
2019-04-30T04:30:26.015Z,10.73
2019-04-30T04:31:26.006Z,10.75
2019-04-30T04:32:26.488Z,10.75
2019-04-30T04:33:26.473Z,10.76
2019-04-30T04:34:26.759Z,10.77
2019-04-30T04:35:29.649Z,10.79
2019-04-30T04:36:30.056Z,10.79
2019-04-30T04:37:29.921Z,10.80
2019-04-30T04:38:30.176Z,10.81
2019-04-30T04:39:29.749Z,10.81
2019-04-30T04:40:30.263Z,10.82
2019-04-30T04:41:29.590Z,10.83
2019-04-30T04:42:32.483Z,10.85
2019-04-30T04:43:30.095Z,10.89
2019-04-30T04:44:29.666Z,10.92
2019-04-30T04:45:30.525Z,10.94
2019-04-30T04:46:30.850Z,10.96
2019-04-30T04:47:31.205Z,10.98
2019-04-30T04:48:31.135Z,11.01
2019-04-30T04:49:31.235Z,11.03
2019-04-30T04:50:31.596Z,11.05
2019-04-30T04:51:38.486Z,11.08
2019-04-30T04:52:32.084Z,11.12
2019-04-30T04:53:32.347Z,11.15
2019-04-30T04:54:32.754Z,11.18
2019-04-30T04:55:33.180Z,11.18
2019-04-30T04:56:33.628Z,11.18
2019-04-30T04:57:33.885Z,11.19
2019-04-30T04:58:34.140Z,11.19
2019-04-30T04:59:34.398Z,11.20
2019-04-30T05:00:34.896Z,11.20
2019-04-30T05:01:35.155Z,11.22
2019-04-30T05:02:35.406Z,11.21
2019-04-30T05:03:35.819Z,11.20
2019-04-30T05:04:35.862Z,11.22
2019-04-30T05:05:36.147Z,11.23
2019-04-30T05:06:36.435Z,11.24
2019-04-30T05:07:36.904Z,11.27
2019-04-30T05:08:36.680Z,11.27
2019-04-30T05:09:36.921Z,11.27
2019-04-30T05:10:39.127Z,11.30
2019-04-30T05:11:39.447Z,11.29
2019-04-30T05:12:39.640Z,11.29
2019-04-30T05:13:38.896Z,11.27
2019-04-30T05:14:38.585Z,11.21
2019-04-30T05:15:39.084Z,11.18
2019-04-30T05:16:38.956Z,11.17
2019-04-30T05:17:39.860Z,11.16
2019-04-30T05:18:39.229Z,11.14
2019-04-30T05:19:39.302Z,11.11
2019-04-30T05:20:41.578Z,11.12
2019-04-30T05:21:44.575Z,11.14
2019-04-30T05:22:40.040Z,11.15
2019-04-30T05:23:42.684Z,11.16
2019-04-30T05:24:40.888Z,11.18
2019-04-30T05:25:40.799Z,11.17
2019-04-30T05:26:41.244Z,11.18
2019-04-30T05:27:41.560Z,11.19
2019-04-30T05:28:41.850Z,11.19
2019-04-30T05:29:42.138Z,11.20
2019-04-30T05:30:42.195Z,11.23
2019-04-30T05:31:42.445Z,11.28
2019-04-30T05:32:42.969Z,11.31
2019-04-30T05:33:42.714Z,11.34
2019-04-30T05:34:43.186Z,11.36
2019-04-30T05:35:43.488Z,11.37
2019-04-30T05:36:43.730Z,11.41
2019-04-30T05:37:43.993Z,11.43
2019-04-30T05:38:44.376Z,11.47
2019-04-30T05:39:45.616Z,11.50
2019-04-30T05:40:45.623Z,11.52
2019-04-30T05:41:45.825Z,11.54
2019-04-30T05:42:49.470Z,11.56
2019-04-30T05:43:45.949Z,11.59
2019-04-30T05:44:46.219Z,11.63
2019-04-30T05:45:46.569Z,11.66
2019-04-30T05:46:47.081Z,11.70
2019-04-30T05:47:50.264Z,11.70
2019-04-30T05:48:47.076Z,11.73
2019-04-30T05:49:48.949Z,11.77
2019-04-30T05:50:51.442Z,11.81
2019-04-30T05:51:55.558Z,11.83
2019-04-30T05:53:49.213Z,11.88
2019-04-30T05:54:49.150Z,11.89
2019-04-30T05:55:49.653Z,11.93
2019-04-30T05:56:49.467Z,11.96
2019-04-30T05:57:55.991Z,12.00
2019-04-30T05:58:49.962Z,12.01
2019-04-30T05:59:50.450Z,12.03
2019-04-30T06:00:51.007Z,12.07
2019-04-30T06:01:50.959Z,12.09
2019-04-30T06:02:51.084Z,12.14
2019-04-30T06:03:51.344Z,12.16
2019-04-30T06:04:51.795Z,12.17
2019-04-30T06:05:51.802Z,12.22
2019-04-30T06:06:52.357Z,12.24
2019-04-30T06:07:52.476Z,12.29
2019-04-30T06:08:52.749Z,12.30
2019-04-30T06:09:52.711Z,12.27
2019-04-30T06:10:52.833Z,12.28
2019-04-30T06:11:53.496Z,12.34
2019-04-30T06:12:53.604Z,12.34
2019-04-30T06:13:53.801Z,12.40
2019-04-30T06:14:54.300Z,12.39
2019-04-30T06:15:54.407Z,12.42
2019-04-30T06:16:54.732Z,12.50
2019-04-30T06:18:00.318Z,12.52
2019-04-30T06:18:55.478Z,12.57
2019-04-30T06:19:55.966Z,12.60
2019-04-30T06:20:56.233Z,12.64
2019-04-30T06:22:07.201Z,12.67
2019-04-30T06:22:56.980Z,12.72
2019-04-30T06:23:59.090Z,12.75
2019-04-30T06:24:59.474Z,12.77
2019-04-30T06:26:06.762Z,12.79
2019-04-30T06:26:58.998Z,12.85
2019-04-30T06:27:59.108Z,12.91
2019-04-30T06:28:59.407Z,12.93
2019-04-30T06:29:59.878Z,13.03
2019-04-30T06:31:00.138Z,13.05
2019-04-30T06:32:00.380Z,13.12
2019-04-30T06:33:00.897Z,13.19
2019-04-30T06:34:00.986Z,13.25
2019-04-30T06:35:00.857Z,13.31
2019-04-30T06:36:01.449Z,13.33
2019-04-30T06:37:01.718Z,13.40
2019-04-30T06:38:02.476Z,13.44
2019-04-30T06:39:02.697Z,13.46
2019-04-30T06:40:02.515Z,13.37
2019-04-30T06:41:03.099Z,13.51
2019-04-30T06:42:06.847Z,13.59
2019-04-30T06:43:03.387Z,13.66
2019-04-30T06:44:03.374Z,13.73
2019-04-30T06:45:03.940Z,13.63
2019-04-30T06:46:04.226Z,13.80
2019-04-30T06:47:04.285Z,13.89
2019-04-30T06:48:04.359Z,13.88
2019-04-30T06:49:04.418Z,13.95
2019-04-30T06:50:04.574Z,13.99
2019-04-30T06:52:04.378Z,14.09
2019-04-30T06:53:04.940Z,14.16
2019-04-30T06:54:04.865Z,14.24
2019-04-30T06:55:05.142Z,13.99
2019-04-30T06:56:05.536Z,14.00
2019-04-30T06:57:05.790Z,14.09
2019-04-30T06:58:14.237Z,14.18
2019-04-30T06:59:06.348Z,14.25
2019-04-30T07:00:06.873Z,14.32
2019-04-30T07:01:07.006Z,14.37
2019-04-30T07:02:08.972Z,14.43
2019-04-30T07:03:09.353Z,14.49
2019-04-30T07:04:07.378Z,14.58
2019-04-30T07:05:09.960Z,14.65
2019-04-30T07:06:08.381Z,14.73
2019-04-30T07:07:09.161Z,14.81
2019-04-30T07:08:09.821Z,14.90
2019-04-30T07:09:08.959Z,14.92
2019-04-30T07:10:10.175Z,15.02
2019-04-30T07:11:11.276Z,15.09
2019-04-30T07:12:09.114Z,15.13
2019-04-30T07:13:09.350Z,15.21
2019-04-30T07:14:09.622Z,15.26
2019-04-30T07:15:10.036Z,15.37
2019-04-30T07:16:11.041Z,15.39
2019-04-30T07:17:10.432Z,15.48
2019-04-30T07:18:10.888Z,15.56
2019-04-30T07:19:11.066Z,15.58
2019-04-30T07:20:11.617Z,15.60
2019-04-30T07:21:11.450Z,15.72
2019-04-30T07:22:12.000Z,15.79
2019-04-30T07:23:12.025Z,15.68
2019-04-30T07:24:12.290Z,15.82
2019-04-30T07:25:12.701Z,15.74
2019-04-30T07:26:13.734Z,15.91
2019-04-30T07:27:13.336Z,15.97
2019-04-30T07:28:13.322Z,15.84
2019-04-30T07:29:13.820Z,15.66
2019-04-30T07:30:13.882Z,15.50
2019-04-30T07:31:14.763Z,15.53
2019-04-30T07:32:14.065Z,15.57
2019-04-30T07:33:14.324Z,15.78
2019-04-30T07:34:14.716Z,15.90
2019-04-30T07:35:15.298Z,15.92
2019-04-30T07:36:15.053Z,16.01
2019-04-30T07:37:21.094Z,15.63
2019-04-30T07:38:15.698Z,15.90
2019-04-30T07:39:16.151Z,15.93
2019-04-30T07:40:16.727Z,15.82
2019-04-30T07:41:16.660Z,15.93
2019-04-30T07:42:16.918Z,16.03
2019-04-30T07:43:18.874Z,16.14
2019-04-30T07:44:31.169Z,16.18
2019-04-30T07:45:19.498Z,16.32
2019-04-30T07:46:19.956Z,16.31
2019-04-30T07:47:19.537Z,16.39
2019-04-30T07:48:25.689Z,16.36
2019-04-30T07:49:20.523Z,16.23
2019-04-30T07:50:21.331Z,16.06
2019-04-30T07:51:21.605Z,16.19
2019-04-30T07:52:21.504Z,16.14
2019-04-30T07:53:20.518Z,16.22
2019-04-30T07:54:20.841Z,16.05
2019-04-30T07:55:21.272Z,15.89
2019-04-30T07:57:21.556Z,15.93
2019-04-30T07:58:21.642Z,15.89
2019-04-30T07:59:21.888Z,16.13
2019-04-30T08:00:22.144Z,16.22
2019-04-30T08:01:22.417Z,16.38
2019-04-30T08:02:22.404Z,16.49
2019-04-30T08:03:23.302Z,16.51
2019-04-30T08:04:22.748Z,16.53
2019-04-30T08:05:23.387Z,16.43
2019-04-30T08:06:23.763Z,16.62
2019-04-30T08:07:24.092Z,16.52
2019-04-30T08:08:25.890Z,16.56
2019-04-30T08:09:24.854Z,16.56
2019-04-30T08:10:25.091Z,16.66
2019-04-30T08:11:26.447Z,16.58
2019-04-30T08:12:32.075Z,16.88
2019-04-30T08:13:26.502Z,16.80
2019-04-30T08:14:26.225Z,17.02
2019-04-30T08:15:26.503Z,17.06
2019-04-30T08:16:28.787Z,17.07
2019-04-30T08:17:28.805Z,17.22
2019-04-30T08:18:27.281Z,17.27
2019-04-30T08:19:28.681Z,17.17
2019-04-30T08:20:29.546Z,17.08
2019-04-30T08:22:29.597Z,17.30
2019-04-30T08:23:34.967Z,17.32
2019-04-30T08:24:29.201Z,17.58
2019-04-30T08:25:29.230Z,17.59
2019-04-30T08:26:28.885Z,17.67
2019-04-30T08:27:29.673Z,17.43
2019-04-30T08:28:30.446Z,17.72
2019-04-30T08:29:29.836Z,17.94
2019-04-30T08:30:30.234Z,18.19
2019-04-30T08:31:30.327Z,18.24
2019-04-30T08:32:30.593Z,18.35
2019-04-30T08:33:30.829Z,18.31
2019-04-30T08:34:31.120Z,18.29
2019-04-30T08:35:31.437Z,18.29
2019-04-30T08:36:33.141Z,18.50
2019-04-30T08:37:31.914Z,18.59
2019-04-30T08:38:32.154Z,18.77
2019-04-30T08:39:32.427Z,19.00
2019-04-30T08:40:32.685Z,19.02
2019-04-30T08:41:32.929Z,18.75
2019-04-30T08:42:34.607Z,18.74
2019-04-30T08:43:33.457Z,18.63
2019-04-30T08:44:33.708Z,18.63
2019-04-30T08:45:34.864Z,18.75
2019-04-30T08:46:34.590Z,18.54
2019-04-30T08:47:34.823Z,18.71
2019-04-30T08:48:47.797Z,18.69
2019-04-30T08:49:35.819Z,18.88
2019-04-30T08:50:35.812Z,19.10
2019-04-30T08:51:36.282Z,18.97
2019-04-30T08:52:36.704Z,18.95
2019-04-30T08:53:38.522Z,18.89
2019-04-30T08:54:36.988Z,19.05
2019-04-30T08:55:39.057Z,19.06
2019-04-30T08:56:38.798Z,19.26
2019-04-30T08:57:39.524Z,19.27
2019-04-30T08:58:39.068Z,19.10
2019-04-30T08:59:39.468Z,19.39
2019-04-30T09:00:38.983Z,19.49
2019-04-30T09:01:39.229Z,19.11
2019-04-30T09:02:39.572Z,18.80
2019-04-30T09:03:39.923Z,19.01
2019-04-30T09:04:40.182Z,18.71
2019-04-30T09:05:40.531Z,18.71
2019-04-30T09:06:40.537Z,19.18
2019-04-30T09:07:40.811Z,19.30
2019-04-30T09:08:41.072Z,19.23
2019-04-30T09:09:41.192Z,19.47
2019-04-30T09:10:41.924Z,19.75
2019-04-30T09:11:51.708Z,20.00
2019-04-30T09:12:42.674Z,20.22
2019-04-30T09:13:42.561Z,20.23
2019-04-30T09:14:42.956Z,20.15
2019-04-30T09:15:43.209Z,20.19
2019-04-30T09:16:43.505Z,20.18
2019-04-30T09:17:43.949Z,20.11
2019-04-30T09:18:43.886Z,19.94
2019-04-30T09:19:44.137Z,19.85
2019-04-30T09:20:49.368Z,19.83
2019-04-30T09:21:44.619Z,19.92
2019-04-30T09:22:44.796Z,19.86
2019-04-30T09:23:51.976Z,19.94
2019-04-30T09:24:45.426Z,19.99
2019-04-30T09:25:45.713Z,20.15
2019-04-30T09:26:46.203Z,20.27
2019-04-30T09:28:46.004Z,20.39
2019-04-30T09:29:46.468Z,19.96
2019-04-30T09:30:48.412Z,19.83
2019-04-30T09:31:46.995Z,20.11
2019-04-30T09:32:46.885Z,20.23
2019-04-30T09:33:49.179Z,20.27
2019-04-30T09:34:48.835Z,20.31
2019-04-30T09:36:49.011Z,19.84
2019-04-30T09:37:49.691Z,19.43
2019-04-30T09:38:48.547Z,19.12
2019-04-30T09:39:49.465Z,18.83
2019-04-30T09:40:50.574Z,19.11
2019-04-30T09:41:49.578Z,19.62
2019-04-30T09:42:49.189Z,19.69
2019-04-30T09:43:49.559Z,19.31
2019-04-30T09:44:49.787Z,19.43
2019-04-30T09:45:50.047Z,19.40
2019-04-30T09:46:50.326Z,19.85
2019-04-30T09:47:50.639Z,19.81
2019-04-30T09:48:50.943Z,19.99
2019-04-30T09:49:50.804Z,19.68
2019-04-30T09:50:51.353Z,20.11
2019-04-30T09:51:51.575Z,19.69
2019-04-30T09:52:52.338Z,20.06
2019-04-30T09:53:58.690Z,20.11
2019-04-30T09:54:52.216Z,20.41
2019-04-30T09:55:52.240Z,20.45
2019-04-30T09:56:52.854Z,20.84
2019-04-30T09:57:52.818Z,20.96
2019-04-30T09:58:53.075Z,21.16
2019-04-30T09:59:53.342Z,21.30
2019-04-30T10:00:53.745Z,21.42
2019-04-30T10:01:54.193Z,21.25
2019-04-30T10:02:54.648Z,21.36
2019-04-30T10:03:55.436Z,20.55
2019-04-30T10:04:55.617Z,20.79
2019-04-30T10:05:55.500Z,21.05
2019-04-30T10:06:56.006Z,21.32
2019-04-30T10:07:56.340Z,21.47
2019-04-30T10:08:56.612Z,21.31
2019-04-30T10:09:58.922Z,21.47
2019-04-30T10:10:58.798Z,21.10
2019-04-30T10:11:57.146Z,21.00
2019-04-30T10:12:59.271Z,21.35
2019-04-30T10:13:57.817Z,21.44
2019-04-30T10:14:59.276Z,21.27
2019-04-30T10:15:58.550Z,21.32
2019-04-30T10:16:59.538Z,21.69
2019-04-30T10:17:58.524Z,21.53
2019-04-30T10:18:59.223Z,21.59
2019-04-30T10:19:59.276Z,21.34
2019-04-30T10:21:00.920Z,21.30
2019-04-30T10:21:59.813Z,21.46
2019-04-30T10:22:59.823Z,21.59
2019-04-30T10:24:12.478Z,21.55
2019-04-30T10:25:00.634Z,21.59
2019-04-30T10:26:00.689Z,21.72
2019-04-30T10:27:00.984Z,22.09
2019-04-30T10:28:01.089Z,22.06
2019-04-30T10:29:01.081Z,21.88
2019-04-30T10:30:01.547Z,21.68
2019-04-30T10:31:01.709Z,22.17
2019-04-30T10:32:02.285Z,22.17
2019-04-30T10:33:02.317Z,22.15
2019-04-30T10:34:02.180Z,22.21
2019-04-30T10:35:03.005Z,21.63
2019-04-30T10:36:02.763Z,21.51
2019-04-30T10:37:03.093Z,22.03
2019-04-30T10:38:02.933Z,21.80
2019-04-30T10:39:03.095Z,22.16
2019-04-30T10:40:03.124Z,22.23
2019-04-30T10:41:03.371Z,22.30
2019-04-30T10:42:03.946Z,22.28
2019-04-30T10:43:03.985Z,22.55
2019-04-30T10:44:04.192Z,22.48
2019-04-30T10:45:04.071Z,22.62
2019-04-30T10:46:04.665Z,22.36
2019-04-30T10:47:04.426Z,21.87
2019-04-30T10:48:04.849Z,21.91
2019-04-30T10:49:05.230Z,22.12
2019-04-30T10:50:06.189Z,22.15
2019-04-30T10:51:06.398Z,21.79
2019-04-30T10:52:06.475Z,22.06
2019-04-30T10:53:06.242Z,22.36
2019-04-30T10:54:08.693Z,21.94
2019-04-30T10:55:06.857Z,22.31
2019-04-30T10:56:07.191Z,22.45
2019-04-30T10:57:08.703Z,22.70
2019-04-30T10:58:07.780Z,22.48
2019-04-30T10:59:08.080Z,22.56
2019-04-30T11:00:10.092Z,22.76
2019-04-30T11:01:09.563Z,22.47
2019-04-30T11:02:09.166Z,22.74
2019-04-30T11:03:19.169Z,22.81
2019-04-30T11:04:09.503Z,23.16
2019-04-30T11:05:10.022Z,22.73
2019-04-30T11:06:09.787Z,22.91
2019-04-30T11:07:10.269Z,22.96
2019-04-30T11:08:10.722Z,22.94
2019-04-30T11:09:10.979Z,22.92
2019-04-30T11:10:11.325Z,22.57
2019-04-30T11:11:11.731Z,22.91
2019-04-30T11:12:12.023Z,22.80
2019-04-30T11:13:12.306Z,22.99
2019-04-30T11:14:12.561Z,22.45
2019-04-30T11:15:13.080Z,22.47
2019-04-30T11:16:15.578Z,22.35
2019-04-30T11:17:13.408Z,22.44
2019-04-30T11:18:13.665Z,22.43
2019-04-30T11:19:14.137Z,22.47
2019-04-30T11:20:14.518Z,22.58
2019-04-30T11:22:14.839Z,22.47
2019-04-30T11:23:15.443Z,22.49
2019-04-30T11:24:15.255Z,22.63
2019-04-30T11:26:15.894Z,22.62
2019-04-30T11:27:16.257Z,23.47
2019-04-30T11:28:16.660Z,23.55
2019-04-30T11:29:16.554Z,23.80
2019-04-30T11:30:21.248Z,23.95
2019-04-30T11:31:17.065Z,23.70
2019-04-30T11:32:17.034Z,23.77
2019-04-30T11:33:16.947Z,24.00
2019-04-30T11:34:17.099Z,24.19
2019-04-30T11:35:18.393Z,23.83
2019-04-30T11:36:19.205Z,23.42
2019-04-30T11:37:17.330Z,23.40
2019-04-30T11:38:20.399Z,23.73
2019-04-30T11:39:18.685Z,23.50
2019-04-30T11:40:31.036Z,23.68
2019-04-30T11:41:30.195Z,23.61
2019-04-30T11:42:19.392Z,23.01
2019-04-30T11:43:20.204Z,23.64
2019-04-30T11:44:30.291Z,23.85
2019-04-30T11:45:20.156Z,23.62
2019-04-30T11:46:20.502Z,23.42
2019-04-30T11:47:20.745Z,23.88
2019-04-30T11:48:20.840Z,23.87
2019-04-30T11:49:20.835Z,24.03
2019-04-30T11:50:21.078Z,24.30
2019-04-30T11:51:21.330Z,24.15
2019-04-30T11:52:21.713Z,24.34
2019-04-30T11:53:27.655Z,24.51
2019-04-30T11:54:22.635Z,24.66
2019-04-30T11:55:22.898Z,24.69
2019-04-30T11:56:23.279Z,24.34
2019-04-30T11:57:23.542Z,24.40
2019-04-30T11:58:23.890Z,24.42
2019-04-30T11:59:23.857Z,24.59
2019-04-30T12:00:24.080Z,24.59
2019-04-30T12:01:24.281Z,24.82
2019-04-30T12:02:24.556Z,25.05
2019-04-30T12:03:24.809Z,25.15
2019-04-30T12:04:25.045Z,25.21
2019-04-30T12:05:25.285Z,24.84
2019-04-30T12:06:25.744Z,24.45
2019-04-30T12:07:26.093Z,24.27
2019-04-30T12:08:26.622Z,23.85
2019-04-30T12:10:26.719Z,23.95
2019-04-30T12:11:26.618Z,24.05
2019-04-30T12:12:28.845Z,23.99
2019-04-30T12:13:27.664Z,24.22
2019-04-30T12:14:29.732Z,23.99
2019-04-30T12:15:29.137Z,23.95
2019-04-30T12:16:28.885Z,24.26
2019-04-30T12:17:29.162Z,24.28
2019-04-30T12:18:29.495Z,24.70
2019-04-30T12:19:29.956Z,24.83
2019-04-30T12:20:30.037Z,24.83
2019-04-30T12:21:30.276Z,25.17
2019-04-30T12:22:30.634Z,25.35
2019-04-30T12:23:31.031Z,25.35
2019-04-30T12:24:31.292Z,25.47
2019-04-30T12:25:31.708Z,25.37
2019-04-30T12:26:31.903Z,25.49
2019-04-30T12:27:32.301Z,25.41
2019-04-30T12:28:32.757Z,25.53
2019-04-30T12:29:33.052Z,25.60
2019-04-30T12:30:33.304Z,25.06
2019-04-30T12:31:33.825Z,24.91
2019-04-30T12:32:35.265Z,24.87
2019-04-30T12:33:34.337Z,24.81
2019-04-30T12:34:34.832Z,24.78
2019-04-30T12:35:35.074Z,25.07
2019-04-30T12:36:35.551Z,25.34
2019-04-30T12:37:35.801Z,25.35
2019-04-30T12:38:36.051Z,25.32
2019-04-30T12:39:36.320Z,25.18
2019-04-30T12:40:36.615Z,25.46
2019-04-30T12:41:38.767Z,25.77
2019-04-30T12:42:38.452Z,25.70
2019-04-30T12:43:37.581Z,25.52
2019-04-30T12:44:39.887Z,25.08
2019-04-30T12:45:39.395Z,25.17
2019-04-30T12:46:38.792Z,24.70
2019-04-30T12:47:38.891Z,25.23
2019-04-30T12:48:39.651Z,25.17
2019-04-30T12:49:39.852Z,25.00
2019-04-30T12:50:40.099Z,25.29
2019-04-30T12:51:45.922Z,25.23
2019-04-30T12:52:40.957Z,25.19
2019-04-30T12:53:41.100Z,25.38
2019-04-30T12:54:41.046Z,25.50
2019-04-30T12:55:41.354Z,25.69
2019-04-30T12:56:41.459Z,25.74
2019-04-30T12:57:41.823Z,25.96
2019-04-30T12:58:41.829Z,26.19
2019-04-30T12:59:42.096Z,26.37
2019-04-30T13:00:42.452Z,26.48
2019-04-30T13:01:42.712Z,26.64
2019-04-30T13:02:43.173Z,26.85
2019-04-30T13:03:55.755Z,26.83
2019-04-30T13:04:43.798Z,26.54
2019-04-30T13:05:44.192Z,25.81
2019-04-30T13:06:44.339Z,25.00
2019-04-30T13:07:44.995Z,25.21